KOLE/OLE METAR and TAF weather

Enter ICAO airport designator
Station Type Date Time Source
KOLE METAR 2020/01/22 20:55 UTC NOAA

KOLE 222055Z AUTO 20006KT 10SM CLR M01/M12 A3026 RMK AO2


Station Type Date Time Source
KOLE Decoded METAR 2020/01/22 20:55 UTC NOAA

Olean Municipal, NY, United States (KOLE) 42-14N 078-22W
Jan 22, 2020 - 03:55 PM EST / 2020.01.22 2055 UTC
Wind: from the SSW (200 degrees) at 7 MPH (6 KT):0
Visibility: 10 mile(s):0
Sky conditions: clear
Temperature: 30 F (-1 C)
Windchill: 23 F (-5 C):1
Dew Point: 10 F (-12 C)
Relative Humidity: 42%
Pressure (altimeter): 30.26 in. Hg (1024 hPa)
ob: KOLE 222055Z AUTO 20006KT 10SM CLR M01/M12 A3026 RMK AO2
cycle: 21

Station Type Date Time Source
KOLE TAF UTC NOAA

Error!

Example: see airport list